Time;durP1;ratioP1;P1;durP2;ratioP2;P2;SDS_P1;SDS_P2;PMS_P1;PMS_P2;Temp;Humidity;BMP_temperature;BMP_pressure;BME280_temperature;BME280_humidity;BME280_pressure;Samples;Min_cycle;Max_cycle;Signal;HPM_P1;HPM_P2
2021/06/16 00:02:44;;;;;;;6.38;2.97;;;;;;;;;;5012315;28;20022;-89
2021/06/16 00:05:33;;;;;;;3.13;2.63;;;;;;;;;;5010701;28;20026;-90
2021/06/16 00:08:26;;;;;;;5.05;3.13;;;;;;;;;;5012323;28;20018;-90
2021/06/16 00:11:20;;;;;;;5.95;3.63;;;;;;;;;;5014211;28;20425;-89
2021/06/16 00:14:23;;;;;;;4.55;2.92;;;;;;;;;;4999001;28;20037;-89
2021/06/16 00:21:46;;;;;;;6.70;3.05;;;;;;;;;;4914143;28;20487;-90
2021/06/16 00:25:00;;;;;;;4.78;2.70;;;;;;;;;;4913227;29;20099;-89
2021/06/16 00:28:14;;;;;;;5.68;2.83;;;;;;;;;;4893446;29;20146;-89
2021/06/16 00:31:18;;;;;;;6.28;3.22;;;;;;;;;;4906096;28;20093;-89
2021/06/16 00:34:25;;;;;;;4.43;3.25;;;;;;;;;;4979953;28;20038;-90
2021/06/16 00:37:27;;;;;;;5.55;2.90;;;;;;;;;;4982871;28;20034;-90
2021/06/16 00:40:28;;;;;;;4.15;2.70;;;;;;;;;;5007973;28;20034;-90
2021/06/16 00:44:04;;;;;;;3.90;2.75;;;;;;;;;;4970203;28;20037;-90
2021/06/16 00:47:05;;;;;;;4.10;2.92;;;;;;;;;;4934334;28;20039;-90
2021/06/16 00:50:43;;;;;;;;;;;;;;;;;;;;;
2021/06/16 00:54:00;;;;;;;4.20;2.85;;;;;;;;;;4891865;29;20036;-91
2021/06/16 01:08:10;;;;;;;3.40;2.80;;;;;;;;;;4747090;30;20516;-90
2021/06/16 01:15:40;;;;;;;5.85;3.10;;;;;;;;;;4666326;30;20066;-90
2021/06/16 01:18:28;;;;;;;4.30;2.92;;;;;;;;;;4699176;30;20036;-89
2021/06/16 01:21:19;;;;;;;6.07;3.10;;;;;;;;;;4737876;30;20036;-88
2021/06/16 01:24:05;;;;;;;7.68;3.13;;;;;;;;;;4830945;29;20104;-88
2021/06/16 01:26:54;;;;;;;5.35;2.97;;;;;;;;;;5000844;28;20041;-89
2021/06/16 01:30:03;;;;;;;4.93;3.08;;;;;;;;;;5014544;28;20183;-89
2021/06/16 01:33:25;;;;;;;5.50;2.80;;;;;;;;;;4968690;28;20030;-89
2021/06/16 01:36:33;;;;;;;6.07;2.95;;;;;;;;;;4974604;28;20037;-88
2021/06/16 01:42:38;;;;;;;7.05;3.38;;;;;;;;;;5009351;28;20025;-90
2021/06/16 01:45:27;;;;;;;6.55;3.22;;;;;;;;;;5015474;28;20021;-88
2021/06/16 01:48:27;;;;;;;6.20;3.42;;;;;;;;;;5006676;28;20411;-90
2021/06/16 01:54:48;;;;;;;5.38;3.05;;;;;;;;;;5007372;28;20076;-89
2021/06/16 01:57:43;;;;;;;4.38;2.90;;;;;;;;;;5007696;28;20029;-89
2021/06/16 02:00:45;;;;;;;6.32;2.92;;;;;;;;;;4988487;28;20048;-90
2021/06/16 02:03:39;;;;;;;5.78;3.42;;;;;;;;;;5028722;28;20029;-90
2021/06/16 02:06:39;;;;;;;5.95;3.42;;;;;;;;;;4987194;28;20064;-89
2021/06/16 02:10:11;;;;;;;4.65;3.08;;;;;;;;;;5016484;28;20026;-90
2021/06/16 02:13:59;;;;;;;5.35;3.55;;;;;;;;;;4907241;28;20036;-89
2021/06/16 02:27:29;;;;;;;;;;;;;;;;;;;;;
2021/06/16 02:30:39;;;;;;;5.53;2.70;;;;;;;;;;4990732;28;20030;-89
2021/06/16 02:37:16;;;;;;;4.43;2.95;;;;;;;;;;5002311;28;20726;-89
2021/06/16 02:40:26;;;;;;;;;;;;;;;;;;;;;
2021/06/16 02:46:26;;;;;;;5.90;3.05;;;;;;;;;;5033179;28;20024;-90
2021/06/16 02:52:55;;;;;;;7.90;3.40;;;;;;;;;;5015885;28;20038;-90
2021/06/16 02:59:50;;;;;;;7.28;3.55;;;;;;;;;;4935414;29;20024;-90
2021/06/16 03:02:46;;;;;;;5.78;3.80;;;;;;;;;;4934322;29;20542;-89
2021/06/16 03:09:47;;;;;;;7.28;3.45;;;;;;;;;;4898840;29;20136;-90
2021/06/16 03:16:14;;;;;;;5.63;3.42;;;;;;;;;;4916560;29;20027;-89
2021/06/16 03:19:07;;;;;;;8.38;3.63;;;;;;;;;;4913741;29;20052;-90
2021/06/16 03:29:20;;;;;;;9.02;3.55;;;;;;;;;;4937787;28;20059;-91
2021/06/16 03:32:33;;;;;;;7.50;3.93;;;;;;;;;;5002661;28;20049;-91
2021/06/16 03:46:06;;;;;;;5.47;3.88;;;;;;;;;;4956992;28;20060;-91
2021/06/16 03:49:19;;;;;;;7.60;3.75;;;;;;;;;;4929466;29;20994;-92
2021/06/16 03:55:32;;;;;;;7.18;3.58;;;;;;;;;;4911313;29;20039;-89
2021/06/16 03:58:28;;;;;;;;;;;;;;;;;;;;;
2021/06/16 04:02:32;;;;;;;;;;;;;;;;;;;;;
2021/06/16 04:05:46;;;;;;;8.35;4.00;;;;;;;;;;4883950;29;20081;-91
2021/06/16 04:08:48;;;;;;;6.05;3.75;;;;;;;;;;4874818;29;20032;-87
2021/06/16 04:11:38;;;;;;;9.00;3.90;;;;;;;;;;4931677;28;20073;-89
2021/06/16 04:14:29;;;;;;;6.53;4.07;;;;;;;;;;4940709;28;20138;-89
2021/06/16 04:18:02;;;;;;;7.95;4.07;;;;;;;;;;4944635;28;20596;-89
2021/06/16 04:24:32;;;;;;;9.30;4.47;;;;;;;;;;4883598;29;20057;-89
2021/06/16 04:31:11;;;;;;;7.38;4.22;;;;;;;;;;4800748;29;20191;-89
2021/06/16 04:34:11;;;;;;;7.57;4.15;;;;;;;;;;4943294;28;20039;-88
2021/06/16 04:41:10;;;;;;;8.40;4.32;;;;;;;;;;4939977;28;20493;-90
2021/06/16 04:44:21;;;;;;;;;;;;;;;;;;;;;
2021/06/16 04:47:32;;;;;;;5.45;4.13;;;;;;;;;;4936327;29;20031;-91
2021/06/16 04:50:58;;;;;;;8.18;4.53;;;;;;;;;;4916746;29;20502;-92
2021/06/16 04:54:10;;;;;;;6.82;4.20;;;;;;;;;;4930215;29;20028;-91
2021/06/16 04:57:03;;;;;;;7.88;4.40;;;;;;;;;;4912348;29;20048;-91
2021/06/16 04:59:48;;;;;;;7.43;4.28;;;;;;;;;;4955039;28;20114;-89
2021/06/16 05:02:33;;;;;;;7.70;3.83;;;;;;;;;;5002629;28;20065;-88
2021/06/16 05:05:54;;;;;;;8.85;4.45;;;;;;;;;;5015404;28;20021;-87
2021/06/16 05:08:43;;;;;;;7.00;4.32;;;;;;;;;;4947777;28;20433;-87
2021/06/16 05:11:37;;;;;;;6.95;4.60;;;;;;;;;;4928515;28;20090;-85
2021/06/16 05:14:25;;;;;;;7.18;4.22;;;;;;;;;;4940925;28;20027;-86
2021/06/16 05:17:34;;;;;;;10.60;4.78;;;;;;;;;;5009736;28;20045;-87
2021/06/16 05:20:40;;;;;;;14.95;5.20;;;;;;;;;;5004809;28;20029;-84
2021/06/16 05:23:29;;;;;;;15.13;5.13;;;;;;;;;;5017068;28;20136;-87
2021/06/16 05:26:17;;;;;;;8.60;4.97;;;;;;;;;;5030392;28;20111;-86
2021/06/16 05:29:03;;;;;;;17.30;10.32;;;;;;;;;;5015646;28;20302;-84
2021/06/16 05:31:49;;;;;;;11.35;5.00;;;;;;;;;;5013751;28;20025;-85
2021/06/16 05:34:35;;;;;;;13.05;7.15;;;;;;;;;;5016086;28;20112;-84
2021/06/16 05:37:20;;;;;;;12.52;4.80;;;;;;;;;;5014947;28;20018;-88
2021/06/16 05:40:06;;;;;;;7.72;4.53;;;;;;;;;;5008860;28;20021;-89
2021/06/16 05:43:00;;;;;;;7.22;4.55;;;;;;;;;;5015048;28;20745;-83
2021/06/16 05:46:05;;;;;;;8.70;4.10;;;;;;;;;;5016574;28;20065;-92
2021/06/16 05:49:29;;;;;;;7.68;3.83;;;;;;;;;;4978509;28;20034;-92
2021/06/16 05:52:15;;;;;;;6.70;4.22;;;;;;;;;;4914436;29;20028;-89
2021/06/16 05:55:05;;;;;;;10.35;4.43;;;;;;;;;;5015800;28;20381;-87
2021/06/16 05:57:51;;;;;;;6.40;4.05;;;;;;;;;;5014367;28;20411;-88
2021/06/16 06:00:36;;;;;;;8.63;4.43;;;;;;;;;;5015391;28;20037;-80
2021/06/16 06:03:21;;;;;;;8.60;4.22;;;;;;;;;;5009125;28;20427;-81
2021/06/16 06:06:07;;;;;;;7.93;5.20;;;;;;;;;;5011557;28;20048;-82
2021/06/16 06:08:54;;;;;;;10.95;4.72;;;;;;;;;;5010611;28;20033;-82
2021/06/16 06:11:40;;;;;;;8.68;3.78;;;;;;;;;;5009048;28;20038;-83
2021/06/16 06:14:25;;;;;;;9.73;4.43;;;;;;;;;;5017537;28;20025;-85
2021/06/16 06:17:11;;;;;;;8.98;3.95;;;;;;;;;;5017752;28;20073;-83
2021/06/16 06:19:56;;;;;;;7.22;3.70;;;;;;;;;;5016872;28;20562;-86
2021/06/16 06:22:41;;;;;;;9.02;3.92;;;;;;;;;;5019192;28;20044;-88
2021/06/16 06:25:26;;;;;;;9.43;4.40;;;;;;;;;;5011051;28;20514;-88
2021/06/16 06:28:12;;;;;;;10.25;4.65;;;;;;;;;;4994835;28;20435;-86
2021/06/16 06:30:57;;;;;;;6.80;3.95;;;;;;;;;;5017414;28;20524;-88
2021/06/16 06:33:42;;;;;;;8.85;4.22;;;;;;;;;;5013620;28;20017;-86
2021/06/16 06:36:27;;;;;;;7.47;4.22;;;;;;;;;;5016706;28;20040;-88
2021/06/16 06:39:14;;;;;;;6.47;3.63;;;;;;;;;;5014411;28;20032;-86
2021/06/16 06:41:59;;;;;;;7.00;3.85;;;;;;;;;;5013277;28;20022;-87
2021/06/16 06:44:45;;;;;;;7.53;3.50;;;;;;;;;;5004998;28;20033;-91
2021/06/16 06:47:31;;;;;;;5.90;3.65;;;;;;;;;;5019444;28;20035;-86
2021/06/16 06:50:16;;;;;;;6.40;3.30;;;;;;;;;;5011828;28;20364;-87
2021/06/16 06:53:01;;;;;;;9.38;3.58;;;;;;;;;;5007015;28;20602;-86
2021/06/16 06:55:49;;;;;;;9.95;3.83;;;;;;;;;;4998833;28;20045;-86
2021/06/16 06:58:34;;;;;;;11.52;3.83;;;;;;;;;;5013487;28;20380;-85
2021/06/16 07:01:22;;;;;;;5.55;3.38;;;;;;;;;;5022512;28;20025;-90
2021/06/16 07:04:07;;;;;;;5.85;3.55;;;;;;;;;;5018384;28;20940;-88
2021/06/16 07:06:53;;;;;;;6.65;3.53;;;;;;;;;;5016447;28;20038;-89
2021/06/16 07:09:38;;;;;;;7.25;2.92;;;;;;;;;;5027303;28;20024;-91
2021/06/16 07:12:24;;;;;;;7.18;3.67;;;;;;;;;;5017590;28;20108;-88
2021/06/16 07:15:09;;;;;;;7.70;3.53;;;;;;;;;;5015371;28;20260;-89
2021/06/16 07:17:58;;;;;;;5.63;3.15;;;;;;;;;;5024242;28;20403;-90
2021/06/16 07:20:43;;;;;;;6.97;3.03;;;;;;;;;;5018934;28;20513;-86
2021/06/16 07:23:28;;;;;;;6.88;3.35;;;;;;;;;;5018258;28;20468;-85
2021/06/16 07:26:14;;;;;;;7.57;3.88;;;;;;;;;;5014771;28;20145;-88
2021/06/16 07:29:00;;;;;;;6.13;3.05;;;;;;;;;;5017559;28;20029;-89
2021/06/16 07:31:45;;;;;;;7.68;3.22;;;;;;;;;;5018632;28;20029;-85
2021/06/16 07:34:30;;;;;;;5.97;3.30;;;;;;;;;;5019304;28;20022;-85
2021/06/16 07:37:15;;;;;;;8.70;3.30;;;;;;;;;;5020249;28;20083;-87
2021/06/16 07:40:02;;;;;;;7.32;3.10;;;;;;;;;;5019221;28;20071;-87
2021/06/16 07:42:47;;;;;;;5.75;3.45;;;;;;;;;;5008029;28;20033;-85
2021/06/16 07:45:33;;;;;;;10.95;3.47;;;;;;;;;;5023210;28;20017;-84
2021/06/16 07:48:18;;;;;;;9.60;3.15;;;;;;;;;;5025018;28;20109;-83
2021/06/16 07:51:03;;;;;;;6.13;3.20;;;;;;;;;;5015451;28;20041;-83
2021/06/16 07:53:49;;;;;;;5.82;2.60;;;;;;;;;;5015749;28;20080;-82
2021/06/16 07:56:34;;;;;;;4.95;2.83;;;;;;;;;;5018129;28;20017;-87
2021/06/16 07:59:19;;;;;;;8.40;3.72;;;;;;;;;;5015506;28;20534;-84
2021/06/16 08:02:05;;;;;;;10.73;3.72;;;;;;;;;;5010325;28;20037;-88
2021/06/16 08:04:52;;;;;;;6.43;3.28;;;;;;;;;;5021362;28;20021;-85
2021/06/16 08:07:37;;;;;;;15.38;3.78;;;;;;;;;;5017067;28;20101;-87
2021/06/16 08:10:22;;;;;;;7.57;3.00;;;;;;;;;;5015307;28;20499;-88
2021/06/16 08:13:07;;;;;;;9.25;3.97;;;;;;;;;;5012998;28;20119;-93
2021/06/16 08:15:53;;;;;;;5.30;3.42;;;;;;;;;;5017033;28;20025;-87
2021/06/16 08:18:38;;;;;;;9.15;3.00;;;;;;;;;;5016792;28;20109;-85
2021/06/16 08:21:23;;;;;;;8.15;3.45;;;;;;;;;;5016414;28;20036;-85
2021/06/16 08:24:08;;;;;;;9.27;3.10;;;;;;;;;;5012520;28;20402;-85
2021/06/16 08:26:54;;;;;;;5.07;3.03;;;;;;;;;;5003543;28;20049;-84
2021/06/16 08:29:39;;;;;;;8.18;3.22;;;;;;;;;;5019011;28;20041;-85
2021/06/16 08:32:24;;;;;;;6.82;3.33;;;;;;;;;;5027085;28;20028;-85
2021/06/16 08:35:10;;;;;;;8.60;3.05;;;;;;;;;;5015256;28;20503;-86
2021/06/16 08:38:01;;;;;;;7.60;2.92;;;;;;;;;;5015354;28;20038;-92
2021/06/16 08:44:13;;;;;;;10.27;3.60;;;;;;;;;;4998267;28;20040;-90
2021/06/16 08:46:59;;;;;;;7.60;3.50;;;;;;;;;;5018887;28;20030;-87
2021/06/16 08:49:44;;;;;;;21.42;5.93;;;;;;;;;;5013097;28;20025;-79
2021/06/16 08:52:32;;;;;;;8.93;2.90;;;;;;;;;;5008151;28;20030;-87
2021/06/16 08:55:21;;;;;;;10.57;2.95;;;;;;;;;;5015886;28;20094;-87
2021/06/16 08:58:07;;;;;;;8.52;3.40;;;;;;;;;;5004255;28;20021;-83
2021/06/16 09:00:52;;;;;;;8.00;3.50;;;;;;;;;;5015957;28;20455;-84
2021/06/16 09:03:38;;;;;;;8.63;3.25;;;;;;;;;;5017539;28;20369;-90
2021/06/16 09:06:27;;;;;;;10.40;3.33;;;;;;;;;;4999919;28;20472;-87
2021/06/16 09:09:12;;;;;;;12.13;3.42;;;;;;;;;;5016039;28;20068;-85
2021/06/16 09:12:00;;;;;;;7.20;3.00;;;;;;;;;;5017195;28;20087;-88
2021/06/16 09:14:49;;;;;;;25.70;10.40;;;;;;;;;;4995768;28;20025;-86
2021/06/16 09:17:34;;;;;;;25.85;8.70;;;;;;;;;;5015084;28;20104;-80
2021/06/16 09:20:23;;;;;;;15.75;5.13;;;;;;;;;;5011631;28;20503;-80
2021/06/16 09:23:09;;;;;;;13.10;5.95;;;;;;;;;;5020076;28;20032;-81
2021/06/16 09:32:00;;;;;;;7.63;3.10;;;;;;;;;;5106855;27;20172;-88
2021/06/16 09:34:50;;;;;;;6.63;2.85;;;;;;;;;;5104963;28;20027;-91
2021/06/16 09:37:40;;;;;;;6.88;2.80;;;;;;;;;;5105123;28;20096;-88
2021/06/16 09:40:39;;;;;;;5.45;3.05;;;;;;;;;;5106779;28;20020;-89
2021/06/16 09:43:27;;;;;;;7.07;2.80;;;;;;;;;;5108022;28;20095;-89
2021/06/16 09:46:12;;;;;;;7.57;3.22;;;;;;;;;;5105406;28;20466;-89
2021/06/16 09:48:58;;;;;;;6.30;3.00;;;;;;;;;;5104338;28;20680;-84
2021/06/16 09:51:43;;;;;;;9.27;2.95;;;;;;;;;;5099678;28;20032;-88
2021/06/16 09:54:37;;;;;;;5.57;2.78;;;;;;;;;;5102951;28;20098;-87
2021/06/16 09:57:22;;;;;;;7.38;2.83;;;;;;;;;;5086400;28;20559;-88
2021/06/16 10:00:10;;;;;;;3.92;2.20;;;;;;;;;;5115960;28;20099;-88
2021/06/16 10:03:15;;;;;;;6.57;2.63;;;;;;;;;;5107068;28;20070;-88
2021/06/16 10:06:04;;;;;;;9.77;3.45;;;;;;;;;;5086914;28;20257;-86
2021/06/16 10:08:50;;;;;;;6.00;2.95;;;;;;;;;;5102447;28;20107;-87
2021/06/16 10:11:36;;;;;;;7.82;3.10;;;;;;;;;;5105316;28;20024;-85
2021/06/16 10:14:21;;;;;;;6.38;3.10;;;;;;;;;;5107373;28;20148;-89
2021/06/16 10:17:07;;;;;;;6.38;2.70;;;;;;;;;;5092665;28;20125;-88
2021/06/16 10:19:53;;;;;;;5.18;3.00;;;;;;;;;;5085756;28;20529;-85
2021/06/16 10:22:38;;;;;;;8.50;3.20;;;;;;;;;;5095642;28;20085;-85
2021/06/16 10:25:24;;;;;;;10.02;2.83;;;;;;;;;;5083735;28;20040;-84
2021/06/16 10:28:10;;;;;;;4.55;2.63;;;;;;;;;;5084661;28;20410;-86
2021/06/16 10:30:55;;;;;;;4.18;2.78;;;;;;;;;;5085508;28;20052;-89
2021/06/16 10:33:41;;;;;;;6.10;2.95;;;;;;;;;;5089165;28;20036;-80
2021/06/16 10:36:26;;;;;;;6.90;2.58;;;;;;;;;;5070805;28;20107;-84
2021/06/16 10:39:13;;;;;;;4.88;2.60;;;;;;;;;;5052286;28;20037;-86
2021/06/16 10:42:00;;;;;;;10.18;2.80;;;;;;;;;;5061421;28;20119;-84
2021/06/16 10:45:05;;;;;;;5.43;2.72;;;;;;;;;;5069648;28;20039;-88
2021/06/16 10:47:54;;;;;;;8.32;2.65;;;;;;;;;;5068371;28;20020;-88
2021/06/16 10:50:50;;;;;;;4.63;2.33;;;;;;;;;;5068554;28;20028;-81
2021/06/16 10:53:55;;;;;;;5.43;2.88;;;;;;;;;;5081910;28;20020;-82
2021/06/16 10:56:41;;;;;;;4.22;2.90;;;;;;;;;;5057352;28;20386;-83
2021/06/16 10:59:42;;;;;;;4.30;2.63;;;;;;;;;;5068688;28;20020;-83
2021/06/16 11:02:27;;;;;;;6.00;2.63;;;;;;;;;;5082208;28;20043;-83
2021/06/16 11:05:26;;;;;;;5.25;2.90;;;;;;;;;;5080785;28;20028;-83
2021/06/16 11:08:31;;;;;;;7.15;2.97;;;;;;;;;;5079757;28;20333;-83
2021/06/16 11:11:17;;;;;;;6.78;2.67;;;;;;;;;;5080594;28;20131;-81
2021/06/16 11:14:02;;;;;;;6.35;3.30;;;;;;;;;;5080666;28;20024;-82
2021/06/16 11:16:50;;;;;;;6.97;2.88;;;;;;;;;;5069089;28;20032;-84
2021/06/16 11:19:35;;;;;;;4.40;2.50;;;;;;;;;;5069117;28;20033;-86
2021/06/16 11:22:28;;;;;;;4.57;2.60;;;;;;;;;;5054080;28;20020;-85
2021/06/16 11:25:24;;;;;;;6.75;2.63;;;;;;;;;;5069299;28;20119;-85
2021/06/16 11:28:10;;;;;;;8.32;3.08;;;;;;;;;;5079602;28;20020;-84
2021/06/16 11:30:56;;;;;;;6.57;2.95;;;;;;;;;;5060445;28;20075;-83
2021/06/16 11:33:45;;;;;;;3.60;2.58;;;;;;;;;;5068623;28;20029;-84
2021/06/16 11:36:38;;;;;;;4.40;3.28;;;;;;;;;;5064626;28;20056;-84
2021/06/16 11:39:23;;;;;;;7.50;3.10;;;;;;;;;;5070536;28;20021;-86
2021/06/16 11:42:12;;;;;;;6.75;2.85;;;;;;;;;;5065267;28;20498;-85
2021/06/16 11:44:57;;;;;;;5.70;2.80;;;;;;;;;;5062219;28;20388;-83
2021/06/16 11:47:50;;;;;;;5.95;2.78;;;;;;;;;;5067118;28;20030;-83
2021/06/16 11:50:35;;;;;;;6.03;2.88;;;;;;;;;;5075382;28;20035;-83
2021/06/16 11:53:25;;;;;;;4.93;2.60;;;;;;;;;;5064055;28;20379;-83
2021/06/16 11:56:10;;;;;;;4.15;2.60;;;;;;;;;;5069428;28;20545;-83
2021/06/16 11:58:56;;;;;;;5.57;3.33;;;;;;;;;;5067704;28;20036;-83
2021/06/16 12:01:41;;;;;;;4.70;2.65;;;;;;;;;;5064279;28;20040;-86
2021/06/16 12:04:26;;;;;;;6.43;2.50;;;;;;;;;;5065934;28;20471;-83
2021/06/16 12:07:12;;;;;;;3.85;2.53;;;;;;;;;;5068681;28;20478;-84
2021/06/16 12:10:02;;;;;;;5.03;2.95;;;;;;;;;;5081412;28;20024;-84
2021/06/16 12:12:52;;;;;;;5.70;3.00;;;;;;;;;;5078229;28;20036;-85
2021/06/16 12:15:38;;;;;;;4.30;2.80;;;;;;;;;;5069388;28;20016;-83
2021/06/16 12:18:29;;;;;;;6.50;3.50;;;;;;;;;;5064178;28;20059;-84
2021/06/16 12:21:15;;;;;;;10.38;3.22;;;;;;;;;;5065881;28;20024;-83
2021/06/16 12:24:14;;;;;;;6.72;3.33;;;;;;;;;;5064469;28;20042;-84
2021/06/16 12:27:11;;;;;;;5.47;3.17;;;;;;;;;;5081860;28;20095;-86
2021/06/16 12:29:56;;;;;;;7.28;2.72;;;;;;;;;;5078420;28;20040;-86
2021/06/16 12:32:46;;;;;;;4.57;3.35;;;;;;;;;;5064961;28;20161;-85
2021/06/16 12:35:40;;;;;;;4.18;2.97;;;;;;;;;;5067134;28;20410;-81
2021/06/16 12:38:35;;;;;;;9.43;3.30;;;;;;;;;;5070414;28;20031;-85
2021/06/16 12:41:28;;;;;;;4.20;2.83;;;;;;;;;;5062325;28;20025;-87
2021/06/16 12:44:23;;;;;;;8.00;3.30;;;;;;;;;;5064630;28;20124;-86
2021/06/16 12:47:10;;;;;;;8.00;3.30;;;;;;;;;;5082852;28;20773;-86
2021/06/16 12:49:56;;;;;;;4.57;3.10;;;;;;;;;;5063359;28;20035;-85
2021/06/16 12:52:42;;;;;;;5.30;2.80;;;;;;;;;;5068140;28;20028;-85
2021/06/16 12:55:27;;;;;;;5.10;3.17;;;;;;;;;;5067803;28;20051;-85
2021/06/16 12:58:12;;;;;;;4.22;2.80;;;;;;;;;;5065567;28;20087;-81
2021/06/16 13:00:59;;;;;;;4.13;2.75;;;;;;;;;;5060761;28;20657;-85
2021/06/16 13:03:46;;;;;;;7.70;3.45;;;;;;;;;;5065742;28;20016;-85
2021/06/16 13:06:32;;;;;;;4.97;2.85;;;;;;;;;;5055077;28;20031;-86
2021/06/16 13:09:22;;;;;;;8.77;3.40;;;;;;;;;;5084273;28;20040;-87
2021/06/16 13:12:07;;;;;;;3.38;2.60;;;;;;;;;;5084246;28;20074;-85
2021/06/16 13:14:59;;;;;;;7.43;3.50;;;;;;;;;;5078592;28;20025;-83
2021/06/16 13:17:46;;;;;;;5.53;2.83;;;;;;;;;;5061815;28;20165;-83
2021/06/16 13:20:38;;;;;;;6.82;2.97;;;;;;;;;;5075308;28;20031;-83
2021/06/16 13:23:26;;;;;;;5.05;3.13;;;;;;;;;;5071454;28;20627;-83
2021/06/16 13:26:11;;;;;;;6.82;2.80;;;;;;;;;;5066255;28;20017;-82
2021/06/16 13:29:04;;;;;;;3.92;3.00;;;;;;;;;;5062296;28;20025;-85
2021/06/16 13:31:49;;;;;;;5.53;2.92;;;;;;;;;;5081141;28;20055;-82
2021/06/16 13:34:37;;;;;;;6.93;2.83;;;;;;;;;;5066510;28;20020;-83
2021/06/16 13:37:22;;;;;;;3.47;2.50;;;;;;;;;;5072734;28;20021;-83
2021/06/16 13:40:08;;;;;;;4.50;2.65;;;;;;;;;;5075652;28;20028;-84
2021/06/16 13:42:55;;;;;;;3.75;2.75;;;;;;;;;;5060332;28;20553;-82
2021/06/16 13:45:40;;;;;;;6.28;4.10;;;;;;;;;;5066081;28;20075;-82
2021/06/16 13:48:25;;;;;;;5.68;3.20;;;;;;;;;;5067014;28;20115;-84
2021/06/16 13:51:11;;;;;;;6.57;2.88;;;;;;;;;;5062329;28;20111;-83
2021/06/16 13:53:56;;;;;;;4.95;2.60;;;;;;;;;;5081148;28;20036;-83
2021/06/16 13:56:44;;;;;;;4.55;2.88;;;;;;;;;;5058096;28;20531;-83
2021/06/16 13:59:29;;;;;;;4.93;3.40;;;;;;;;;;5067954;28;20020;-83
2021/06/16 14:02:14;;;;;;;3.58;2.75;;;;;;;;;;5074690;28;20391;-85
2021/06/16 14:05:00;;;;;;;3.75;2.92;;;;;;;;;;5053021;28;20169;-83
2021/06/16 14:07:46;;;;;;;5.75;2.60;;;;;;;;;;5063810;28;20028;-82
2021/06/16 14:10:31;;;;;;;6.47;3.33;;;;;;;;;;5067024;28;20099;-81
2021/06/16 14:13:16;;;;;;;3.78;2.95;;;;;;;;;;5058006;28;20518;-83
2021/06/16 14:16:02;;;;;;;4.38;2.80;;;;;;;;;;5066532;28;20028;-82
2021/06/16 14:19:03;;;;;;;;;;;;;;;;;;;;;
2021/06/16 14:21:50;;;;;;;6.95;2.83;;;;;;;;;;5054658;28;20047;-83
2021/06/16 14:24:38;;;;;;;7.18;2.97;;;;;;;;;;5070347;28;20054;-81
2021/06/16 14:27:24;;;;;;;7.70;3.08;;;;;;;;;;5068279;28;20024;-83
2021/06/16 14:30:11;;;;;;;6.47;3.40;;;;;;;;;;5068088;28;20602;-84
2021/06/16 14:32:56;;;;;;;7.47;3.22;;;;;;;;;;5077886;28;20433;-86
2021/06/16 14:35:43;;;;;;;4.80;2.53;;;;;;;;;;5069951;28;20028;-87
2021/06/16 14:38:28;;;;;;;7.15;3.25;;;;;;;;;;5067127;28;20039;-85
2021/06/16 14:41:13;;;;;;;5.18;2.72;;;;;;;;;;5066542;28;20024;-85
2021/06/16 14:43:58;;;;;;;6.70;3.10;;;;;;;;;;5067286;28;20021;-86
2021/06/16 14:46:44;;;;;;;6.22;3.08;;;;;;;;;;5068287;28;20023;-83
2021/06/16 14:49:29;;;;;;;9.13;3.10;;;;;;;;;;5050707;28;20023;-84
2021/06/16 14:52:14;;;;;;;5.00;2.50;;;;;;;;;;5083437;28;20020;-84
2021/06/16 14:55:00;;;;;;;5.68;3.10;;;;;;;;;;5053413;28;20055;-84
2021/06/16 14:57:45;;;;;;;5.40;3.10;;;;;;;;;;5083657;28;20253;-83
2021/06/16 15:00:30;;;;;;;6.75;3.05;;;;;;;;;;5054575;28;20027;-81
2021/06/16 15:03:15;;;;;;;6.53;2.80;;;;;;;;;;5065460;28;20029;-83
2021/06/16 15:06:01;;;;;;;7.00;2.92;;;;;;;;;;5079242;28;20372;-83
2021/06/16 15:08:46;;;;;;;6.18;3.45;;;;;;;;;;5067720;28;20062;-83
2021/06/16 15:11:31;;;;;;;6.57;3.10;;;;;;;;;;5084141;28;20024;-83
2021/06/16 15:14:16;;;;;;;4.15;3.00;;;;;;;;;;5050874;28;20031;-83
2021/06/16 15:17:02;;;;;;;5.22;2.60;;;;;;;;;;5056040;28;20036;-84
2021/06/16 15:19:47;;;;;;;6.13;3.00;;;;;;;;;;5053045;28;20024;-84
2021/06/16 15:22:32;;;;;;;6.35;3.15;;;;;;;;;;5069144;28;20115;-84
2021/06/16 15:25:18;;;;;;;9.23;2.95;;;;;;;;;;5077004;28;20016;-82
2021/06/16 15:28:08;;;;;;;6.32;3.10;;;;;;;;;;5069600;28;20099;-83
2021/06/16 15:30:53;;;;;;;6.30;2.30;;;;;;;;;;5068251;28;20044;-84
2021/06/16 15:33:39;;;;;;;7.20;3.08;;;;;;;;;;5064320;28;20080;-83
2021/06/16 15:36:24;;;;;;;4.97;3.10;;;;;;;;;;5075711;28;20028;-84
2021/06/16 15:39:11;;;;;;;6.85;3.00;;;;;;;;;;5064186;28;20043;-83
2021/06/16 15:41:56;;;;;;;6.03;3.03;;;;;;;;;;5067402;28;20494;-82
2021/06/16 15:44:43;;;;;;;11.55;9.38;;;;;;;;;;5063325;28;20021;-84
2021/06/16 15:47:28;;;;;;;6.88;3.75;;;;;;;;;;5051763;28;20532;-81
2021/06/16 15:50:14;;;;;;;8.50;3.38;;;;;;;;;;5058777;28;20032;-82
2021/06/16 15:52:59;;;;;;;11.00;5.88;;;;;;;;;;5067108;28;20341;-86
2021/06/16 15:55:44;;;;;;;11.15;8.70;;;;;;;;;;5079635;28;20091;-82
2021/06/16 15:58:30;;;;;;;7.28;3.53;;;;;;;;;;5066807;28;20020;-85
2021/06/16 16:01:16;;;;;;;6.47;3.75;;;;;;;;;;5072334;28;20516;-81
2021/06/16 16:04:01;;;;;;;5.93;2.72;;;;;;;;;;5064018;28;20032;-80
2021/06/16 16:06:46;;;;;;;6.53;3.55;;;;;;;;;;5078214;28;20048;-83
2021/06/16 16:09:32;;;;;;;8.07;2.85;;;;;;;;;;5063617;28;20049;-82
2021/06/16 16:12:17;;;;;;;8.43;3.58;;;;;;;;;;5063532;28;20024;-83
2021/06/16 16:15:04;;;;;;;7.95;3.60;;;;;;;;;;5064006;28;20093;-81
2021/06/16 16:17:50;;;;;;;7.60;3.25;;;;;;;;;;5065416;28;20044;-81
2021/06/16 16:20:36;;;;;;;4.22;2.92;;;;;;;;;;5074266;28;20040;-83
2021/06/16 16:23:21;;;;;;;5.45;2.88;;;;;;;;;;5065290;28;20112;-82
2021/06/16 16:26:07;;;;;;;7.53;3.72;;;;;;;;;;5063231;28;20596;-82
2021/06/16 16:28:52;;;;;;;6.22;3.03;;;;;;;;;;5063251;28;20040;-82
2021/06/16 16:31:37;;;;;;;4.55;3.60;;;;;;;;;;5064426;28;20268;-81
2021/06/16 16:34:22;;;;;;;5.13;2.75;;;;;;;;;;5062206;28;20029;-81
2021/06/16 16:37:09;;;;;;;3.40;2.55;;;;;;;;;;5063934;28;20097;-82
2021/06/16 16:39:54;;;;;;;4.63;2.92;;;;;;;;;;5065805;28;20040;-82
2021/06/16 16:42:39;;;;;;;9.50;3.22;;;;;;;;;;5057301;28;20518;-83
2021/06/16 16:45:26;;;;;;;4.10;2.33;;;;;;;;;;5065712;28;20445;-86
2021/06/16 16:48:11;;;;;;;4.32;2.55;;;;;;;;;;5063773;28;20108;-86
2021/06/16 16:50:57;;;;;;;3.58;2.30;;;;;;;;;;5051869;28;20039;-86
2021/06/16 16:53:42;;;;;;;5.25;2.80;;;;;;;;;;5049069;28;20128;-86
2021/06/16 16:56:27;;;;;;;3.55;2.95;;;;;;;;;;5066392;28;20034;-84
2021/06/16 16:59:12;;;;;;;5.43;3.05;;;;;;;;;;5056876;28;20035;-84
2021/06/16 17:01:58;;;;;;;5.00;2.58;;;;;;;;;;5067308;28;20099;-85
2021/06/16 17:04:43;;;;;;;7.90;3.08;;;;;;;;;;5066181;28;20060;-84
2021/06/16 17:07:28;;;;;;;5.15;3.17;;;;;;;;;;5061677;28;20017;-87
2021/06/16 17:10:15;;;;;;;6.65;2.80;;;;;;;;;;5067068;28;20020;-85
2021/06/16 17:13:00;;;;;;;6.00;3.00;;;;;;;;;;5064564;28;20085;-85
2021/06/16 17:15:47;;;;;;;5.05;2.35;;;;;;;;;;5066190;28;20040;-85
2021/06/16 17:18:33;;;;;;;4.72;2.55;;;;;;;;;;5055415;28;20514;-86
2021/06/16 17:21:18;;;;;;;6.18;2.83;;;;;;;;;;5063974;28;20025;-84
2021/06/16 17:24:04;;;;;;;7.05;2.97;;;;;;;;;;5065686;28;20383;-85
2021/06/16 17:26:49;;;;;;;5.53;3.42;;;;;;;;;;5064470;28;20119;-86
2021/06/16 17:29:34;;;;;;;4.82;2.90;;;;;;;;;;5061959;28;20041;-85
2021/06/16 17:32:19;;;;;;;6.43;2.92;;;;;;;;;;5065446;28;20016;-86
2021/06/16 17:35:05;;;;;;;4.05;3.00;;;;;;;;;;5063704;28;20024;-85
2021/06/16 17:37:50;;;;;;;4.70;3.55;;;;;;;;;;5059349;28;20314;-83
2021/06/16 17:40:35;;;;;;;3.05;2.63;;;;;;;;;;5059397;28;20025;-83
2021/06/16 17:43:21;;;;;;;6.03;2.80;;;;;;;;;;5047350;28;20228;-85
2021/06/16 17:46:06;;;;;;;5.65;3.00;;;;;;;;;;5060048;28;20020;-86
2021/06/16 17:48:52;;;;;;;6.35;2.78;;;;;;;;;;5067172;28;20352;-86
2021/06/16 17:51:37;;;;;;;4.07;2.75;;;;;;;;;;5079541;28;20025;-87
2021/06/16 17:54:22;;;;;;;7.20;3.22;;;;;;;;;;5069108;28;20118;-86
2021/06/16 17:57:10;;;;;;;8.07;3.20;;;;;;;;;;5068597;28;20028;-85
2021/06/16 17:59:55;;;;;;;4.70;2.95;;;;;;;;;;5086682;28;20028;-88
2021/06/16 18:02:42;;;;;;;4.38;3.10;;;;;;;;;;5068853;28;20033;-86
2021/06/16 18:05:28;;;;;;;5.82;3.08;;;;;;;;;;5068789;28;20055;-85
2021/06/16 18:08:14;;;;;;;3.70;2.85;;;;;;;;;;5067454;28;20290;-87
2021/06/16 18:10:59;;;;;;;5.85;3.17;;;;;;;;;;5068800;28;20034;-86
2021/06/16 18:13:44;;;;;;;6.05;2.92;;;;;;;;;;5071049;28;20604;-87
2021/06/16 18:16:30;;;;;;;4.95;2.70;;;;;;;;;;5056604;28;20024;-87
2021/06/16 18:19:15;;;;;;;4.63;3.15;;;;;;;;;;5070324;28;20059;-87
2021/06/16 18:22:01;;;;;;;5.80;3.50;;;;;;;;;;5067963;28;20022;-87
2021/06/16 18:24:46;;;;;;;6.43;3.85;;;;;;;;;;5058517;28;20027;-86
2021/06/16 18:27:31;;;;;;;4.70;3.22;;;;;;;;;;5067989;28;20453;-88
2021/06/16 18:30:18;;;;;;;5.65;2.75;;;;;;;;;;5064041;28;20141;-87
2021/06/16 18:33:04;;;;;;;6.25;3.63;;;;;;;;;;5079032;28;20364;-86
2021/06/16 18:35:49;;;;;;;8.93;3.65;;;;;;;;;;5070720;28;20077;-87
2021/06/16 18:38:35;;;;;;;6.38;3.50;;;;;;;;;;5066142;28;20031;-85
2021/06/16 18:41:20;;;;;;;4.90;3.25;;;;;;;;;;5069003;28;20020;-86
2021/06/16 18:44:06;;;;;;;7.82;4.57;;;;;;;;;;5063501;28;20028;-86
2021/06/16 18:46:51;;;;;;;8.05;3.55;;;;;;;;;;5065994;28;20650;-86
2021/06/16 18:49:37;;;;;;;7.28;3.58;;;;;;;;;;5067695;28;20148;-86